sensor_id;sensor_type;location;lat;lon;timestamp;temperature;humidity
80676;SHT30;70041;46.088;18.268;2024-03-29T00:01:35;7.84;86.12
80676;SHT30;70041;46.088;18.268;2024-03-29T00:04:00;7.83;86.33
80676;SHT30;70041;46.088;18.268;2024-03-29T00:06:25;7.85;86.82
80676;SHT30;70041;46.088;18.268;2024-03-29T00:08:51;7.91;85.78
80676;SHT30;70041;46.088;18.268;2024-03-29T00:11:17;7.93;86.45
80676;SHT30;70041;46.088;18.268;2024-03-29T00:13:42;8.08;88.75
80676;SHT30;70041;46.088;18.268;2024-03-29T00:16:07;8.12;89.74
80676;SHT30;70041;46.088;18.268;2024-03-29T00:18:33;8.16;88.75
80676;SHT30;70041;46.088;18.268;2024-03-29T00:20:58;8.24;89.32
80676;SHT30;70041;46.088;18.268;2024-03-29T00:23:24;8.36;88.54
80676;SHT30;70041;46.088;18.268;2024-03-29T00:25:49;8.41;87.57
80676;SHT30;70041;46.088;18.268;2024-03-29T00:28:14;8.45;87.53
80676;SHT30;70041;46.088;18.268;2024-03-29T00:30:40;8.44;88.11
80676;SHT30;70041;46.088;18.268;2024-03-29T00:33:05;8.57;87.26
80676;SHT30;70041;46.088;18.268;2024-03-29T00:35:30;8.57;86.73
80676;SHT30;70041;46.088;18.268;2024-03-29T00:37:56;8.52;87.93
80676;SHT30;70041;46.088;18.268;2024-03-29T00:40:21;8.44;88.46
80676;SHT30;70041;46.088;18.268;2024-03-29T00:42:47;8.45;88.59
80676;SHT30;70041;46.088;18.268;2024-03-29T00:45:12;8.55;88.31
80676;SHT30;70041;46.088;18.268;2024-03-29T00:47:37;8.66;86.29
80676;SHT30;70041;46.088;18.268;2024-03-29T00:50:03;8.75;84.47
80676;SHT30;70041;46.088;18.268;2024-03-29T00:52:29;8.60;82.26
80676;SHT30;70041;46.088;18.268;2024-03-29T00:54:54;8.57;83.98
80676;SHT30;70041;46.088;18.268;2024-03-29T00:57:19;8.75;83.47
80676;SHT30;70041;46.088;18.268;2024-03-29T00:59:46;8.70;84.68
80676;SHT30;70041;46.088;18.268;2024-03-29T01:02:12;8.75;82.00
80676;SHT30;70041;46.088;18.268;2024-03-29T01:04:37;8.90;79.39
80676;SHT30;70041;46.088;18.268;2024-03-29T01:07:03;9.08;77.71
80676;SHT30;70041;46.088;18.268;2024-03-29T01:09:29;9.14;81.06
80676;SHT30;70041;46.088;18.268;2024-03-29T01:11:55;9.21;82.65
80676;SHT30;70041;46.088;18.268;2024-03-29T01:14:20;9.27;80.48
80676;SHT30;70041;46.088;18.268;2024-03-29T01:16:45;9.28;82.03
80676;SHT30;70041;46.088;18.268;2024-03-29T01:19:11;9.34;82.85
80676;SHT30;70041;46.088;18.268;2024-03-29T01:21:36;9.35;82.26
80676;SHT30;70041;46.088;18.268;2024-03-29T01:24:02;9.30;83.59
80676;SHT30;70041;46.088;18.268;2024-03-29T01:26:28;9.24;83.72
80676;SHT30;70041;46.088;18.268;2024-03-29T01:28:53;9.20;83.36
80676;SHT30;70041;46.088;18.268;2024-03-29T01:31:19;9.20;83.21
80676;SHT30;70041;46.088;18.268;2024-03-29T01:33:44;9.13;84.59
80676;SHT30;70041;46.088;18.268;2024-03-29T01:36:09;9.18;84.75
80676;SHT30;70041;46.088;18.268;2024-03-29T01:38:35;9.21;84.76
80676;SHT30;70041;46.088;18.268;2024-03-29T01:41:00;9.16;84.36
80676;SHT30;70041;46.088;18.268;2024-03-29T01:43:26;8.86;84.74
80676;SHT30;70041;46.088;18.268;2024-03-29T01:45:55;8.81;85.33
80676;SHT30;70041;46.088;18.268;2024-03-29T01:48:22;8.80;86.13
80676;SHT30;70041;46.088;18.268;2024-03-29T01:50:48;8.83;85.73
80676;SHT30;70041;46.088;18.268;2024-03-29T01:53:15;8.87;85.78
80676;SHT30;70041;46.088;18.268;2024-03-29T01:55:41;8.93;84.53
80676;SHT30;70041;46.088;18.268;2024-03-29T01:58:08;8.79;85.76
80676;SHT30;70041;46.088;18.268;2024-03-29T02:00:36;8.70;87.01
80676;SHT30;70041;46.088;18.268;2024-03-29T02:03:04;8.77;87.62
80676;SHT30;70041;46.088;18.268;2024-03-29T02:05:34;8.80;85.02
80676;SHT30;70041;46.088;18.268;2024-03-29T02:08:00;8.96;85.89
80676;SHT30;70041;46.088;18.268;2024-03-29T02:10:26;9.03;84.74
80676;SHT30;70041;46.088;18.268;2024-03-29T02:12:51;8.99;85.16
80676;SHT30;70041;46.088;18.268;2024-03-29T02:15:17;9.06;82.42
80676;SHT30;70041;46.088;18.268;2024-03-29T02:17:42;8.97;83.59
80676;SHT30;70041;46.088;18.268;2024-03-29T02:20:08;8.97;83.75
80676;SHT30;70041;46.088;18.268;2024-03-29T02:22:36;8.96;83.98
80676;SHT30;70041;46.088;18.268;2024-03-29T02:25:05;8.99;83.01
80676;SHT30;70041;46.088;18.268;2024-03-29T02:27:31;8.91;82.29
80676;SHT30;70041;46.088;18.268;2024-03-29T02:29:57;8.91;81.66
80676;SHT30;70041;46.088;18.268;2024-03-29T02:32:22;8.94;82.10
80676;SHT30;70041;46.088;18.268;2024-03-29T02:34:48;8.96;81.64
80676;SHT30;70041;46.088;18.268;2024-03-29T02:37:13;9.03;80.81
80676;SHT30;70041;46.088;18.268;2024-03-29T02:39:39;9.03;80.34
80676;SHT30;70041;46.088;18.268;2024-03-29T02:42:04;9.01;80.45
80676;SHT30;70041;46.088;18.268;2024-03-29T02:44:30;9.01;80.21
80676;SHT30;70041;46.088;18.268;2024-03-29T02:46:55;8.87;80.79
80676;SHT30;70041;46.088;18.268;2024-03-29T02:49:21;8.76;81.39
80676;SHT30;70041;46.088;18.268;2024-03-29T02:51:46;8.76;81.10
80676;SHT30;70041;46.088;18.268;2024-03-29T02:54:11;8.77;80.91
80676;SHT30;70041;46.088;18.268;2024-03-29T02:56:37;8.72;81.77
80676;SHT30;70041;46.088;18.268;2024-03-29T02:59:02;8.62;82.47
80676;SHT30;70041;46.088;18.268;2024-03-29T03:01:27;8.49;83.75
80676;SHT30;70041;46.088;18.268;2024-03-29T03:03:53;8.45;85.51
80676;SHT30;70041;46.088;18.268;2024-03-29T03:06:18;8.48;85.06
80676;SHT30;70041;46.088;18.268;2024-03-29T03:08:43;8.48;84.72
80676;SHT30;70041;46.088;18.268;2024-03-29T03:11:27;8.31;85.56
80676;SHT30;70041;46.088;18.268;2024-03-29T03:13:53;8.21;85.66
80676;SHT30;70041;46.088;18.268;2024-03-29T03:16:18;8.16;86.09
80676;SHT30;70041;46.088;18.268;2024-03-29T03:18:43;8.11;86.56
80676;SHT30;70041;46.088;18.268;2024-03-29T03:21:09;8.20;85.77
80676;SHT30;70041;46.088;18.268;2024-03-29T03:23:34;8.25;85.48
80676;SHT30;70041;46.088;18.268;2024-03-29T03:26:01;8.16;86.51
80676;SHT30;70041;46.088;18.268;2024-03-29T03:28:29;8.04;87.44
80676;SHT30;70041;46.088;18.268;2024-03-29T03:30:54;7.98;87.35
80676;SHT30;70041;46.088;18.268;2024-03-29T03:33:20;7.93;87.63
80676;SHT30;70041;46.088;18.268;2024-03-29T03:35:46;7.95;87.57
80676;SHT30;70041;46.088;18.268;2024-03-29T03:38:12;8.01;87.45
80676;SHT30;70041;46.088;18.268;2024-03-29T03:40:38;8.04;86.96
80676;SHT30;70041;46.088;18.268;2024-03-29T03:43:04;8.01;86.86
80676;SHT30;70041;46.088;18.268;2024-03-29T03:45:35;7.91;86.88
80676;SHT30;70041;46.088;18.268;2024-03-29T03:48:02;7.97;86.42
80676;SHT30;70041;46.088;18.268;2024-03-29T03:50:28;8.02;87.41
80676;SHT30;70041;46.088;18.268;2024-03-29T03:52:53;8.05;87.39
80676;SHT30;70041;46.088;18.268;2024-03-29T03:55:18;7.94;87.56
80676;SHT30;70041;46.088;18.268;2024-03-29T03:57:44;7.90;88.34
80676;SHT30;70041;46.088;18.268;2024-03-29T04:00:10;7.85;88.62
80676;SHT30;70041;46.088;18.268;2024-03-29T04:02:35;7.94;88.05
80676;SHT30;70041;46.088;18.268;2024-03-29T04:05:01;7.81;87.76
80676;SHT30;70041;46.088;18.268;2024-03-29T04:07:26;7.85;88.66
80676;SHT30;70041;46.088;18.268;2024-03-29T04:09:51;7.84;89.29
80676;SHT30;70041;46.088;18.268;2024-03-29T04:12:17;7.78;88.94
80676;SHT30;70041;46.088;18.268;2024-03-29T04:14:43;7.90;88.52
80676;SHT30;70041;46.088;18.268;2024-03-29T04:17:08;7.97;88.04
80676;SHT30;70041;46.088;18.268;2024-03-29T04:19:33;7.98;87.51
80676;SHT30;70041;46.088;18.268;2024-03-29T04:21:59;7.91;87.67
80676;SHT30;70041;46.088;18.268;2024-03-29T04:24:24;7.97;87.14
80676;SHT30;70041;46.088;18.268;2024-03-29T04:26:50;7.98;87.51
80676;SHT30;70041;46.088;18.268;2024-03-29T04:29:16;8.02;87.34
80676;SHT30;70041;46.088;18.268;2024-03-29T04:31:41;8.06;87.23
80676;SHT30;70041;46.088;18.268;2024-03-29T04:34:07;7.98;87.96
80676;SHT30;70041;46.088;18.268;2024-03-29T04:36:32;7.91;88.88
80676;SHT30;70041;46.088;18.268;2024-03-29T04:38:57;7.93;89.47
80676;SHT30;70041;46.088;18.268;2024-03-29T04:41:23;8.08;88.76
80676;SHT30;70041;46.088;18.268;2024-03-29T04:43:50;8.15;87.51
80676;SHT30;70041;46.088;18.268;2024-03-29T04:46:16;8.16;87.35
80676;SHT30;70041;46.088;18.268;2024-03-29T04:48:42;8.12;87.98
80676;SHT30;70041;46.088;18.268;2024-03-29T04:51:09;8.11;87.90
80676;SHT30;70041;46.088;18.268;2024-03-29T04:53:38;8.09;87.33
80676;SHT30;70041;46.088;18.268;2024-03-29T04:56:03;8.02;87.31
80676;SHT30;70041;46.088;18.268;2024-03-29T04:58:29;8.04;87.52
80676;SHT30;70041;46.088;18.268;2024-03-29T05:00:55;8.02;87.63
80676;SHT30;70041;46.088;18.268;2024-03-29T05:03:21;7.85;88.40
80676;SHT30;70041;46.088;18.268;2024-03-29T05:05:52;7.71;89.24
80676;SHT30;70041;46.088;18.268;2024-03-29T05:08:18;7.75;88.70
80676;SHT30;70041;46.088;18.268;2024-03-29T05:10:45;7.73;89.14
80676;SHT30;70041;46.088;18.268;2024-03-29T05:13:10;7.71;89.77
80676;SHT30;70041;46.088;18.268;2024-03-29T05:15:36;7.69;89.44
80676;SHT30;70041;46.088;18.268;2024-03-29T05:18:02;7.73;88.93
80676;SHT30;70041;46.088;18.268;2024-03-29T05:20:27;7.71;88.18
80676;SHT30;70041;46.088;18.268;2024-03-29T05:22:53;7.77;88.17
80676;SHT30;70041;46.088;18.268;2024-03-29T05:25:18;7.69;89.37
80676;SHT30;70041;46.088;18.268;2024-03-29T05:27:43;7.69;88.66
80676;SHT30;70041;46.088;18.268;2024-03-29T05:30:09;7.66;88.62
80676;SHT30;70041;46.088;18.268;2024-03-29T05:32:35;7.75;89.04
80676;SHT30;70041;46.088;18.268;2024-03-29T05:35:01;7.70;89.59
80676;SHT30;70041;46.088;18.268;2024-03-29T05:37:26;7.84;89.65
80676;SHT30;70041;46.088;18.268;2024-03-29T05:39:52;7.85;89.32
80676;SHT30;70041;46.088;18.268;2024-03-29T05:42:30;7.88;89.33
80676;SHT30;70041;46.088;18.268;2024-03-29T05:44:56;7.90;89.34
80676;SHT30;70041;46.088;18.268;2024-03-29T05:47:22;8.18;88.13
80676;SHT30;70041;46.088;18.268;2024-03-29T05:49:48;8.22;88.26
80676;SHT30;70041;46.088;18.268;2024-03-29T05:52:13;8.21;88.52
80676;SHT30;70041;46.088;18.268;2024-03-29T05:54:45;8.39;87.91
80676;SHT30;70041;46.088;18.268;2024-03-29T05:57:11;8.42;87.80
80676;SHT30;70041;46.088;18.268;2024-03-29T05:59:37;8.42;87.33
80676;SHT30;70041;46.088;18.268;2024-03-29T06:02:03;8.66;87.84
80676;SHT30;70041;46.088;18.268;2024-03-29T06:04:29;8.69;87.69
80676;SHT30;70041;46.088;18.268;2024-03-29T06:07:01;8.83;87.69
80676;SHT30;70041;46.088;18.268;2024-03-29T06:09:27;9.07;86.11
80676;SHT30;70041;46.088;18.268;2024-03-29T06:11:56;9.03;86.57
80676;SHT30;70041;46.088;18.268;2024-03-29T06:14:24;9.21;86.62
80676;SHT30;70041;46.088;18.268;2024-03-29T06:17:09;9.18;85.67
80676;SHT30;70041;46.088;18.268;2024-03-29T06:19:54;9.24;86.28
80676;SHT30;70041;46.088;18.268;2024-03-29T06:22:23;9.11;85.79
80676;SHT30;70041;46.088;18.268;2024-03-29T06:24:52;9.11;86.21
80676;SHT30;70041;46.088;18.268;2024-03-29T06:27:19;9.24;85.40
80676;SHT30;70041;46.088;18.268;2024-03-29T06:29:46;9.49;85.53
80676;SHT30;70041;46.088;18.268;2024-03-29T06:32:11;9.61;83.76
80676;SHT30;70041;46.088;18.268;2024-03-29T06:34:37;9.68;83.84
80676;SHT30;70041;46.088;18.268;2024-03-29T06:37:02;9.72;84.39
80676;SHT30;70041;46.088;18.268;2024-03-29T06:39:28;9.85;84.38
80676;SHT30;70041;46.088;18.268;2024-03-29T06:41:53;9.85;82.50
80676;SHT30;70041;46.088;18.268;2024-03-29T06:44:19;9.83;81.46
80676;SHT30;70041;46.088;18.268;2024-03-29T06:46:46;9.86;82.33
80676;SHT30;70041;46.088;18.268;2024-03-29T06:49:11;9.74;81.99
80676;SHT30;70041;46.088;18.268;2024-03-29T06:51:38;9.82;83.50
80676;SHT30;70041;46.088;18.268;2024-03-29T06:54:04;9.89;82.24
80676;SHT30;70041;46.088;18.268;2024-03-29T06:56:29;10.00;81.10
80676;SHT30;70041;46.088;18.268;2024-03-29T06:58:55;10.03;81.27
80676;SHT30;70041;46.088;18.268;2024-03-29T07:01:20;10.06;81.84
80676;SHT30;70041;46.088;18.268;2024-03-29T07:03:46;10.10;81.17
80676;SHT30;70041;46.088;18.268;2024-03-29T07:06:11;10.06;81.06
80676;SHT30;70041;46.088;18.268;2024-03-29T07:08:36;10.12;81.02
80676;SHT30;70041;46.088;18.268;2024-03-29T07:11:02;10.17;81.87
80676;SHT30;70041;46.088;18.268;2024-03-29T07:13:29;10.24;82.13
80676;SHT30;70041;46.088;18.268;2024-03-29T07:16:00;10.40;81.90
80676;SHT30;70041;46.088;18.268;2024-03-29T07:18:26;10.51;80.09
80676;SHT30;70041;46.088;18.268;2024-03-29T07:20:52;10.54;80.92
80676;SHT30;70041;46.088;18.268;2024-03-29T07:23:17;10.74;82.73
80676;SHT30;70041;46.088;18.268;2024-03-29T07:25:57;10.80;81.28
80676;SHT30;70041;46.088;18.268;2024-03-29T07:28:23;10.84;79.83
80676;SHT30;70041;46.088;18.268;2024-03-29T07:30:48;10.90;79.79
80676;SHT30;70041;46.088;18.268;2024-03-29T07:33:15;11.04;79.84
80676;SHT30;70041;46.088;18.268;2024-03-29T07:35:41;11.32;80.01
80676;SHT30;70041;46.088;18.268;2024-03-29T07:38:07;11.52;80.16
80676;SHT30;70041;46.088;18.268;2024-03-29T07:40:32;11.72;76.89
80676;SHT30;70041;46.088;18.268;2024-03-29T07:42:58;11.89;78.03
80676;SHT30;70041;46.088;18.268;2024-03-29T07:45:25;11.82;77.64
80676;SHT30;70041;46.088;18.268;2024-03-29T07:47:50;11.82;77.55
80676;SHT30;70041;46.088;18.268;2024-03-29T07:50:18;11.98;76.16
80676;SHT30;70041;46.088;18.268;2024-03-29T07:52:47;12.34;76.43
80676;SHT30;70041;46.088;18.268;2024-03-29T07:55:12;12.31;74.11
80676;SHT30;70041;46.088;18.268;2024-03-29T07:57:38;12.55;73.51
80676;SHT30;70041;46.088;18.268;2024-03-29T08:00:04;12.82;72.58
80676;SHT30;70041;46.088;18.268;2024-03-29T08:02:31;12.98;72.98
80676;SHT30;70041;46.088;18.268;2024-03-29T08:04:57;13.06;73.96
80676;SHT30;70041;46.088;18.268;2024-03-29T08:07:22;13.09;72.07
80676;SHT30;70041;46.088;18.268;2024-03-29T08:09:49;13.19;71.74
80676;SHT30;70041;46.088;18.268;2024-03-29T08:12:15;13.27;72.39
80676;SHT30;70041;46.088;18.268;2024-03-29T08:14:40;13.05;72.58
80676;SHT30;70041;46.088;18.268;2024-03-29T08:17:06;13.12;74.58
80676;SHT30;70041;46.088;18.268;2024-03-29T08:19:39;13.10;73.31
80676;SHT30;70041;46.088;18.268;2024-03-29T08:22:05;13.15;76.02
80676;SHT30;70041;46.088;18.268;2024-03-29T08:24:30;13.36;74.23
80676;SHT30;70041;46.088;18.268;2024-03-29T08:26:56;13.47;74.49
80676;SHT30;70041;46.088;18.268;2024-03-29T08:29:21;13.61;73.17
80676;SHT30;70041;46.088;18.268;2024-03-29T08:31:47;14.08;72.65
80676;SHT30;70041;46.088;18.268;2024-03-29T08:34:12;14.43;67.22
80676;SHT30;70041;46.088;18.268;2024-03-29T08:36:39;14.69;66.68
80676;SHT30;70041;46.088;18.268;2024-03-29T08:39:05;14.96;68.28
80676;SHT30;70041;46.088;18.268;2024-03-29T08:41:30;15.06;68.31
80676;SHT30;70041;46.088;18.268;2024-03-29T08:43:56;15.14;69.11
80676;SHT30;70041;46.088;18.268;2024-03-29T08:46:21;15.07;65.97
80676;SHT30;70041;46.088;18.268;2024-03-29T08:48:47;15.00;66.64
80676;SHT30;70041;46.088;18.268;2024-03-29T08:51:13;15.16;69.11
80676;SHT30;70041;46.088;18.268;2024-03-29T08:53:39;15.14;66.03
80676;SHT30;70041;46.088;18.268;2024-03-29T08:56:05;15.11;64.45
80676;SHT30;70041;46.088;18.268;2024-03-29T08:58:31;15.26;69.43
80676;SHT30;70041;46.088;18.268;2024-03-29T09:00:56;15.34;66.55
80676;SHT30;70041;46.088;18.268;2024-03-29T09:03:22;15.33;65.37
80676;SHT30;70041;46.088;18.268;2024-03-29T09:05:48;15.47;65.98
80676;SHT30;70041;46.088;18.268;2024-03-29T09:08:14;15.82;61.98
80676;SHT30;70041;46.088;18.268;2024-03-29T09:10:40;16.01;63.62
80676;SHT30;70041;46.088;18.268;2024-03-29T09:13:05;16.01;63.72
80676;SHT30;70041;46.088;18.268;2024-03-29T09:15:32;16.15;62.36
80676;SHT30;70041;46.088;18.268;2024-03-29T09:17:58;16.33;64.06
80676;SHT30;70041;46.088;18.268;2024-03-29T09:20:26;16.16;63.82
80676;SHT30;70041;46.088;18.268;2024-03-29T09:22:52;16.23;62.75
80676;SHT30;70041;46.088;18.268;2024-03-29T09:25:17;16.26;63.58
80676;SHT30;70041;46.088;18.268;2024-03-29T09:27:45;16.39;61.39
80676;SHT30;70041;46.088;18.268;2024-03-29T09:30:11;16.50;65.00
80676;SHT30;70041;46.088;18.268;2024-03-29T09:32:37;16.50;61.86
80676;SHT30;70041;46.088;18.268;2024-03-29T09:35:02;16.55;63.07
80676;SHT30;70041;46.088;18.268;2024-03-29T09:37:28;16.70;62.19
80676;SHT30;70041;46.088;18.268;2024-03-29T09:39:53;16.88;63.16
80676;SHT30;70041;46.088;18.268;2024-03-29T09:42:21;16.95;61.31
80676;SHT30;70041;46.088;18.268;2024-03-29T09:44:50;16.98;61.97
80676;SHT30;70041;46.088;18.268;2024-03-29T09:47:17;17.10;60.31
80676;SHT30;70041;46.088;18.268;2024-03-29T09:49:44;17.25;62.89
80676;SHT30;70041;46.088;18.268;2024-03-29T09:52:13;17.42;63.52
80676;SHT30;70041;46.088;18.268;2024-03-29T09:54:38;17.66;61.61
80676;SHT30;70041;46.088;18.268;2024-03-29T09:57:05;17.93;64.17
80676;SHT30;70041;46.088;18.268;2024-03-29T09:59:30;18.00;58.23
80676;SHT30;70041;46.088;18.268;2024-03-29T10:01:56;17.92;59.54
80676;SHT30;70041;46.088;18.268;2024-03-29T10:04:24;17.72;59.00
80676;SHT30;70041;46.088;18.268;2024-03-29T10:06:51;17.62;59.97
80676;SHT30;70041;46.088;18.268;2024-03-29T10:09:20;17.85;63.90
80676;SHT30;70041;46.088;18.268;2024-03-29T10:11:47;17.93;59.11
80676;SHT30;70041;46.088;18.268;2024-03-29T10:14:12;18.10;60.55
80676;SHT30;70041;46.088;18.268;2024-03-29T10:16:38;18.12;60.83
80676;SHT30;70041;46.088;18.268;2024-03-29T10:19:04;18.17;61.01
80676;SHT30;70041;46.088;18.268;2024-03-29T10:21:29;18.14;58.85
80676;SHT30;70041;46.088;18.268;2024-03-29T10:23:55;18.20;58.60
80676;SHT30;70041;46.088;18.268;2024-03-29T10:26:21;18.13;57.69
80676;SHT30;70041;46.088;18.268;2024-03-29T10:28:47;18.02;58.21
80676;SHT30;70041;46.088;18.268;2024-03-29T10:31:14;18.13;60.55
80676;SHT30;70041;46.088;18.268;2024-03-29T10:33:42;18.48;61.88
80676;SHT30;70041;46.088;18.268;2024-03-29T10:36:08;18.75;59.71
80676;SHT30;70041;46.088;18.268;2024-03-29T10:38:35;18.94;61.03
80676;SHT30;70041;46.088;18.268;2024-03-29T10:41:01;19.11;57.45
80676;SHT30;70041;46.088;18.268;2024-03-29T10:43:29;19.71;58.68
80676;SHT30;70041;46.088;18.268;2024-03-29T10:45:55;20.37;56.38
80676;SHT30;70041;46.088;18.268;2024-03-29T10:48:25;20.64;53.43
80676;SHT30;70041;46.088;18.268;2024-03-29T10:50:53;21.03;53.57
80676;SHT30;70041;46.088;18.268;2024-03-29T10:53:19;21.44;50.99
80676;SHT30;70041;46.088;18.268;2024-03-29T10:55:46;21.80;52.04
80676;SHT30;70041;46.088;18.268;2024-03-29T10:58:12;22.00;50.74
80676;SHT30;70041;46.088;18.268;2024-03-29T11:00:46;22.53;51.24
80676;SHT30;70041;46.088;18.268;2024-03-29T11:05:48;22.66;50.43
80676;SHT30;70041;46.088;18.268;2024-03-29T11:08:22;22.19;47.45
80676;SHT30;70041;46.088;18.268;2024-03-29T11:10:50;21.84;49.44
80676;SHT30;70041;46.088;18.268;2024-03-29T11:13:49;21.62;50.80
80676;SHT30;70041;46.088;18.268;2024-03-29T11:16:18;21.31;51.07
80676;SHT30;70041;46.088;18.268;2024-03-29T11:18:47;21.20;51.89
80676;SHT30;70041;46.088;18.268;2024-03-29T11:21:13;20.96;51.93
80676;SHT30;70041;46.088;18.268;2024-03-29T11:23:48;20.93;51.94
80676;SHT30;70041;46.088;18.268;2024-03-29T11:26:14;20.78;52.51
80676;SHT30;70041;46.088;18.268;2024-03-29T11:28:39;20.49;53.06
80676;SHT30;70041;46.088;18.268;2024-03-29T11:31:08;20.48;53.61
80676;SHT30;70041;46.088;18.268;2024-03-29T11:33:35;20.55;52.20
80676;SHT30;70041;46.088;18.268;2024-03-29T11:36:16;20.62;52.38
80676;SHT30;70041;46.088;18.268;2024-03-29T11:38:43;20.52;53.20
80676;SHT30;70041;46.088;18.268;2024-03-29T11:41:10;20.75;51.78
80676;SHT30;70041;46.088;18.268;2024-03-29T11:43:36;20.86;51.60
80676;SHT30;70041;46.088;18.268;2024-03-29T11:46:08;20.96;51.82
80676;SHT30;70041;46.088;18.268;2024-03-29T11:48:34;21.11;51.49
80676;SHT30;70041;46.088;18.268;2024-03-29T11:51:02;21.39;51.39
80676;SHT30;70041;46.088;18.268;2024-03-29T11:53:29;21.31;52.00
80676;SHT30;70041;46.088;18.268;2024-03-29T11:55:56;21.16;51.78
80676;SHT30;70041;46.088;18.268;2024-03-29T11:58:26;21.06;50.77
80676;SHT30;70041;46.088;18.268;2024-03-29T12:00:52;20.90;52.36
80676;SHT30;70041;46.088;18.268;2024-03-29T12:03:19;20.89;52.69
80676;SHT30;70041;46.088;18.268;2024-03-29T12:05:48;20.78;53.23
80676;SHT30;70041;46.088;18.268;2024-03-29T12:08:14;20.64;52.55
80676;SHT30;70041;46.088;18.268;2024-03-29T12:10:40;20.62;52.94
80676;SHT30;70041;46.088;18.268;2024-03-29T12:13:06;20.72;51.93
80676;SHT30;70041;46.088;18.268;2024-03-29T12:15:32;20.75;51.92
80676;SHT30;70041;46.088;18.268;2024-03-29T12:17:59;20.98;51.39
80676;SHT30;70041;46.088;18.268;2024-03-29T12:20:29;21.02;51.67
80676;SHT30;70041;46.088;18.268;2024-03-29T12:22:55;20.93;52.60
80676;SHT30;70041;46.088;18.268;2024-03-29T12:25:21;20.95;52.11
80676;SHT30;70041;46.088;18.268;2024-03-29T12:27:49;21.00;52.61
80676;SHT30;70041;46.088;18.268;2024-03-29T12:30:15;20.90;52.07
80676;SHT30;70041;46.088;18.268;2024-03-29T12:32:41;20.90;52.09
80676;SHT30;70041;46.088;18.268;2024-03-29T12:35:15;20.93;52.35
80676;SHT30;70041;46.088;18.268;2024-03-29T12:37:48;20.88;52.11
80676;SHT30;70041;46.088;18.268;2024-03-29T12:40:19;20.79;52.67
80676;SHT30;70041;46.088;18.268;2024-03-29T12:42:51;20.79;51.55
80676;SHT30;70041;46.088;18.268;2024-03-29T12:45:18;20.71;51.92
80676;SHT30;70041;46.088;18.268;2024-03-29T12:47:47;20.69;51.86
80676;SHT30;70041;46.088;18.268;2024-03-29T12:50:27;20.65;51.61
80676;SHT30;70041;46.088;18.268;2024-03-29T12:52:54;20.80;50.94
80676;SHT30;70041;46.088;18.268;2024-03-29T12:55:21;20.96;51.38
80676;SHT30;70041;46.088;18.268;2024-03-29T12:57:46;21.11;50.23
80676;SHT30;70041;46.088;18.268;2024-03-29T13:00:12;21.34;49.84
80676;SHT30;70041;46.088;18.268;2024-03-29T13:02:38;21.44;49.13
80676;SHT30;70041;46.088;18.268;2024-03-29T13:05:04;21.60;49.05
80676;SHT30;70041;46.088;18.268;2024-03-29T13:07:33;21.58;48.87
80676;SHT30;70041;46.088;18.268;2024-03-29T13:09:59;21.78;48.57
80676;SHT30;70041;46.088;18.268;2024-03-29T13:12:29;22.04;47.33
80676;SHT30;70041;46.088;18.268;2024-03-29T13:14:55;22.79;46.21
80676;SHT30;70041;46.088;18.268;2024-03-29T13:17:20;22.76;46.11
80676;SHT30;70041;46.088;18.268;2024-03-29T13:19:45;22.89;46.01
80676;SHT30;70041;46.088;18.268;2024-03-29T13:22:11;22.72;45.19
80676;SHT30;70041;46.088;18.268;2024-03-29T13:24:36;22.64;44.71
80676;SHT30;70041;46.088;18.268;2024-03-29T13:27:02;22.69;45.12
80676;SHT30;70041;46.088;18.268;2024-03-29T13:29:29;22.53;45.37
80676;SHT30;70041;46.088;18.268;2024-03-29T13:31:55;22.25;47.16
80676;SHT30;70041;46.088;18.268;2024-03-29T13:34:21;22.19;47.06
80676;SHT30;70041;46.088;18.268;2024-03-29T13:36:47;21.92;46.79
80676;SHT30;70041;46.088;18.268;2024-03-29T13:39:12;21.73;47.22
80676;SHT30;70041;46.088;18.268;2024-03-29T13:41:38;21.54;47.29
80676;SHT30;70041;46.088;18.268;2024-03-29T13:44:05;21.31;48.42
80676;SHT30;70041;46.088;18.268;2024-03-29T13:46:34;21.26;48.53
80676;SHT30;70041;46.088;18.268;2024-03-29T13:49:01;21.19;48.84
80676;SHT30;70041;46.088;18.268;2024-03-29T13:51:27;21.16;49.08
80676;SHT30;70041;46.088;18.268;2024-03-29T13:53:53;21.13;49.31
80676;SHT30;70041;46.088;18.268;2024-03-29T13:56:21;21.07;50.09
80676;SHT30;70041;46.088;18.268;2024-03-29T13:58:47;21.07;50.27
80676;SHT30;70041;46.088;18.268;2024-03-29T14:01:12;21.00;51.15
80676;SHT30;70041;46.088;18.268;2024-03-29T14:03:38;20.75;51.55
80676;SHT30;70041;46.088;18.268;2024-03-29T14:06:04;20.61;52.23
80676;SHT30;70041;46.088;18.268;2024-03-29T14:08:30;20.69;52.56
80676;SHT30;70041;46.088;18.268;2024-03-29T14:10:57;20.61;52.49
80676;SHT30;70041;46.088;18.268;2024-03-29T14:13:22;20.65;52.67
80676;SHT30;70041;46.088;18.268;2024-03-29T14:15:49;20.72;52.03
80676;SHT30;70041;46.088;18.268;2024-03-29T14:18:14;20.61;52.52
80676;SHT30;70041;46.088;18.268;2024-03-29T14:20:39;20.62;52.43
80676;SHT30;70041;46.088;18.268;2024-03-29T14:23:05;20.64;52.23
80676;SHT30;70041;46.088;18.268;2024-03-29T14:25:33;20.64;52.47
80676;SHT30;70041;46.088;18.268;2024-03-29T14:28:01;20.64;52.40
80676;SHT30;70041;46.088;18.268;2024-03-29T14:30:27;20.58;52.44
80676;SHT30;70041;46.088;18.268;2024-03-29T14:32:55;20.58;52.38
80676;SHT30;70041;46.088;18.268;2024-03-29T14:35:20;20.56;51.80
80676;SHT30;70041;46.088;18.268;2024-03-29T14:37:46;20.58;51.93
80676;SHT30;70041;46.088;18.268;2024-03-29T14:40:12;20.58;52.41
80676;SHT30;70041;46.088;18.268;2024-03-29T14:42:42;20.55;52.20
80676;SHT30;70041;46.088;18.268;2024-03-29T14:45:09;20.56;52.42
80676;SHT30;70041;46.088;18.268;2024-03-29T14:47:37;20.51;52.29
80676;SHT30;70041;46.088;18.268;2024-03-29T14:50:03;20.48;52.78
80676;SHT30;70041;46.088;18.268;2024-03-29T14:52:31;20.45;52.30
80676;SHT30;70041;46.088;18.268;2024-03-29T14:54:56;20.39;52.04
80676;SHT30;70041;46.088;18.268;2024-03-29T14:57:21;20.44;52.42
80676;SHT30;70041;46.088;18.268;2024-03-29T14:59:48;20.38;52.43
80676;SHT30;70041;46.088;18.268;2024-03-29T15:02:14;20.39;52.14
80676;SHT30;70041;46.088;18.268;2024-03-29T15:04:39;20.44;52.38
80676;SHT30;70041;46.088;18.268;2024-03-29T15:07:04;20.42;52.78
80676;SHT30;70041;46.088;18.268;2024-03-29T15:09:30;20.38;53.08
80676;SHT30;70041;46.088;18.268;2024-03-29T15:11:55;20.32;53.72
80676;SHT30;70041;46.088;18.268;2024-03-29T15:14:21;20.20;53.41
80676;SHT30;70041;46.088;18.268;2024-03-29T15:16:46;20.35;53.19
80676;SHT30;70041;46.088;18.268;2024-03-29T15:19:12;20.27;52.71
80676;SHT30;70041;46.088;18.268;2024-03-29T15:21:38;20.34;53.07